sensor_id;sensor_type;location;lat;lon;timestamp;temperature;humidity
64951;DHT22;51482;47.014;7.652;2023-08-20T00:00:18;21.30;99.90
64951;DHT22;51482;47.014;7.652;2023-08-20T00:02:46;21.40;99.90
64951;DHT22;51482;47.014;7.652;2023-08-20T00:05:12;21.30;99.90
64951;DHT22;51482;47.014;7.652;2023-08-20T00:07:39;21.20;99.90
64951;DHT22;51482;47.014;7.652;2023-08-20T00:10:05;21.10;99.90
64951;DHT22;51482;47.014;7.652;2023-08-20T00:12:31;21.00;99.90
64951;DHT22;51482;47.014;7.652;2023-08-20T00:14:58;20.90;99.90
64951;DHT22;51482;47.014;7.652;2023-08-20T00:17:30;21.00;99.90
64951;DHT22;51482;47.014;7.652;2023-08-20T00:19:56;21.00;99.90
64951;DHT22;51482;47.014;7.652;2023-08-20T00:22:23;21.00;99.90
64951;DHT22;51482;47.014;7.652;2023-08-20T00:24:53;21.00;99.90
64951;DHT22;51482;47.014;7.652;2023-08-20T00:27:18;20.80;99.90
64951;DHT22;51482;47.014;7.652;2023-08-20T00:29:44;20.70;99.90
64951;DHT22;51482;47.014;7.652;2023-08-20T00:32:10;20.50;99.90
64951;DHT22;51482;47.014;7.652;2023-08-20T00:34:35;20.50;99.90
64951;DHT22;51482;47.014;7.652;2023-08-20T00:37:01;20.50;99.90
64951;DHT22;51482;47.014;7.652;2023-08-20T00:39:28;20.60;99.90
64951;DHT22;51482;47.014;7.652;2023-08-20T00:41:54;20.40;99.90
64951;DHT22;51482;47.014;7.652;2023-08-20T00:44:19;20.40;99.90
64951;DHT22;51482;47.014;7.652;2023-08-20T00:46:45;20.40;99.90
64951;DHT22;51482;47.014;7.652;2023-08-20T00:49:10;20.50;99.90
64951;DHT22;51482;47.014;7.652;2023-08-20T00:51:36;20.50;99.90
64951;DHT22;51482;47.014;7.652;2023-08-20T00:54:03;20.60;99.90
64951;DHT22;51482;47.014;7.652;2023-08-20T00:56:29;20.60;99.90
64951;DHT22;51482;47.014;7.652;2023-08-20T00:58:55;20.50;99.90
64951;DHT22;51482;47.014;7.652;2023-08-20T01:01:21;20.50;99.90
64951;DHT22;51482;47.014;7.652;2023-08-20T01:03:47;20.50;99.90
64951;DHT22;51482;47.014;7.652;2023-08-20T01:06:33;20.50;99.90
64951;DHT22;51482;47.014;7.652;2023-08-20T01:09:09;20.50;99.90
64951;DHT22;51482;47.014;7.652;2023-08-20T01:11:45;20.50;99.90
64951;DHT22;51482;47.014;7.652;2023-08-20T01:14:16;20.50;99.90
64951;DHT22;51482;47.014;7.652;2023-08-20T01:16:42;20.60;99.90
64951;DHT22;51482;47.014;7.652;2023-08-20T01:19:11;20.40;99.90
64951;DHT22;51482;47.014;7.652;2023-08-20T01:30:15;20.40;99.90
64951;DHT22;51482;47.014;7.652;2023-08-20T01:32:42;20.40;99.90
64951;DHT22;51482;47.014;7.652;2023-08-20T01:35:16;20.40;99.90
64951;DHT22;51482;47.014;7.652;2023-08-20T01:37:42;20.30;99.90
64951;DHT22;51482;47.014;7.652;2023-08-20T01:40:08;20.30;99.90
64951;DHT22;51482;47.014;7.652;2023-08-20T01:42:39;20.30;99.90
64951;DHT22;51482;47.014;7.652;2023-08-20T01:45:06;20.30;99.90
64951;DHT22;51482;47.014;7.652;2023-08-20T01:47:32;20.50;99.90
64951;DHT22;51482;47.014;7.652;2023-08-20T01:49:58;20.40;99.90
64951;DHT22;51482;47.014;7.652;2023-08-20T01:52:24;20.40;99.90
64951;DHT22;51482;47.014;7.652;2023-08-20T01:54:49;20.30;99.90
64951;DHT22;51482;47.014;7.652;2023-08-20T01:57:15;20.20;99.90
64951;DHT22;51482;47.014;7.652;2023-08-20T01:59:41;20.20;99.90
64951;DHT22;51482;47.014;7.652;2023-08-20T02:02:07;20.20;99.90
64951;DHT22;51482;47.014;7.652;2023-08-20T02:04:33;20.10;99.90
64951;DHT22;51482;47.014;7.652;2023-08-20T02:06:59;20.60;99.90
64951;DHT22;51482;47.014;7.652;2023-08-20T02:09:24;20.10;99.90
64951;DHT22;51482;47.014;7.652;2023-08-20T02:11:50;20.10;99.90
64951;DHT22;51482;47.014;7.652;2023-08-20T02:14:16;20.20;99.90
64951;DHT22;51482;47.014;7.652;2023-08-20T02:16:42;20.10;99.90
64951;DHT22;51482;47.014;7.652;2023-08-20T02:19:07;20.00;99.90
64951;DHT22;51482;47.014;7.652;2023-08-20T02:21:33;20.00;99.90
64951;DHT22;51482;47.014;7.652;2023-08-20T02:23:59;19.90;99.90
64951;DHT22;51482;47.014;7.652;2023-08-20T02:26:25;19.80;99.90
64951;DHT22;51482;47.014;7.652;2023-08-20T02:28:50;19.80;99.90
64951;DHT22;51482;47.014;7.652;2023-08-20T02:31:16;19.80;99.90
64951;DHT22;51482;47.014;7.652;2023-08-20T02:33:41;19.80;99.90
64951;DHT22;51482;47.014;7.652;2023-08-20T02:36:07;19.70;99.90
64951;DHT22;51482;47.014;7.652;2023-08-20T02:38:32;19.70;99.90
64951;DHT22;51482;47.014;7.652;2023-08-20T02:40:58;19.70;99.90
64951;DHT22;51482;47.014;7.652;2023-08-20T02:43:24;19.70;99.90
64951;DHT22;51482;47.014;7.652;2023-08-20T02:45:49;19.70;99.90
64951;DHT22;51482;47.014;7.652;2023-08-20T02:48:15;19.80;99.90
64951;DHT22;51482;47.014;7.652;2023-08-20T02:50:41;19.70;99.90
64951;DHT22;51482;47.014;7.652;2023-08-20T02:53:07;19.50;99.90
64951;DHT22;51482;47.014;7.652;2023-08-20T02:55:33;19.30;99.90
64951;DHT22;51482;47.014;7.652;2023-08-20T02:57:59;19.20;99.90
64951;DHT22;51482;47.014;7.652;2023-08-20T03:00:24;19.20;99.90
64951;DHT22;51482;47.014;7.652;2023-08-20T03:02:50;19.10;99.90
64951;DHT22;51482;47.014;7.652;2023-08-20T03:05:16;19.10;99.90
64951;DHT22;51482;47.014;7.652;2023-08-20T03:07:41;19.20;99.90
64951;DHT22;51482;47.014;7.652;2023-08-20T03:10:07;19.30;99.90
64951;DHT22;51482;47.014;7.652;2023-08-20T03:12:32;19.20;99.90
64951;DHT22;51482;47.014;7.652;2023-08-20T03:14:59;19.30;99.90
64951;DHT22;51482;47.014;7.652;2023-08-20T03:17:25;19.30;99.90
64951;DHT22;51482;47.014;7.652;2023-08-20T03:19:58;19.10;99.90
64951;DHT22;51482;47.014;7.652;2023-08-20T03:22:25;19.20;99.90
64951;DHT22;51482;47.014;7.652;2023-08-20T03:24:52;19.20;99.90
64951;DHT22;51482;47.014;7.652;2023-08-20T03:27:17;19.10;99.90
64951;DHT22;51482;47.014;7.652;2023-08-20T03:29:43;18.90;99.90
64951;DHT22;51482;47.014;7.652;2023-08-20T03:32:09;18.90;99.90
64951;DHT22;51482;47.014;7.652;2023-08-20T03:34:35;18.80;99.90
64951;DHT22;51482;47.014;7.652;2023-08-20T03:37:01;18.90;99.90
64951;DHT22;51482;47.014;7.652;2023-08-20T03:39:26;18.90;99.90
64951;DHT22;51482;47.014;7.652;2023-08-20T03:41:52;19.00;99.90
64951;DHT22;51482;47.014;7.652;2023-08-20T03:44:18;18.90;99.90
64951;DHT22;51482;47.014;7.652;2023-08-20T03:46:44;18.90;99.90
64951;DHT22;51482;47.014;7.652;2023-08-20T03:49:10;19.00;99.90
64951;DHT22;51482;47.014;7.652;2023-08-20T03:51:35;18.90;99.90
64951;DHT22;51482;47.014;7.652;2023-08-20T03:54:01;18.90;99.90
64951;DHT22;51482;47.014;7.652;2023-08-20T03:56:27;18.90;99.90
64951;DHT22;51482;47.014;7.652;2023-08-20T03:58:52;18.70;99.90
64951;DHT22;51482;47.014;7.652;2023-08-20T04:01:18;18.70;99.90
64951;DHT22;51482;47.014;7.652;2023-08-20T04:03:45;18.60;99.90
64951;DHT22;51482;47.014;7.652;2023-08-20T04:06:11;18.60;99.90
64951;DHT22;51482;47.014;7.652;2023-08-20T04:08:37;18.60;99.90
64951;DHT22;51482;47.014;7.652;2023-08-20T04:11:02;18.70;99.90
64951;DHT22;51482;47.014;7.652;2023-08-20T04:13:29;18.80;99.90
64951;DHT22;51482;47.014;7.652;2023-08-20T04:15:55;18.90;99.90
64951;DHT22;51482;47.014;7.652;2023-08-20T04:18:20;18.80;99.90
64951;DHT22;51482;47.014;7.652;2023-08-20T04:20:46;18.90;99.90
64951;DHT22;51482;47.014;7.652;2023-08-20T04:23:11;18.90;99.90
64951;DHT22;51482;47.014;7.652;2023-08-20T04:25:37;19.00;99.90
64951;DHT22;51482;47.014;7.652;2023-08-20T04:28:03;18.90;99.90
64951;DHT22;51482;47.014;7.652;2023-08-20T04:30:28;18.80;99.90
64951;DHT22;51482;47.014;7.652;2023-08-20T04:32:54;18.80;99.90
64951;DHT22;51482;47.014;7.652;2023-08-20T04:35:19;18.70;99.90
64951;DHT22;51482;47.014;7.652;2023-08-20T04:37:45;18.60;99.90
64951;DHT22;51482;47.014;7.652;2023-08-20T04:40:11;18.80;99.90
64951;DHT22;51482;47.014;7.652;2023-08-20T04:42:37;19.10;99.90
64951;DHT22;51482;47.014;7.652;2023-08-20T04:45:03;19.30;99.90
64951;DHT22;51482;47.014;7.652;2023-08-20T04:47:29;19.60;99.90
64951;DHT22;51482;47.014;7.652;2023-08-20T04:49:54;19.70;99.90
64951;DHT22;51482;47.014;7.652;2023-08-20T04:52:20;19.90;99.90
64951;DHT22;51482;47.014;7.652;2023-08-20T04:54:47;19.90;99.90
64951;DHT22;51482;47.014;7.652;2023-08-20T04:57:12;19.80;99.90
64951;DHT22;51482;47.014;7.652;2023-08-20T04:59:38;19.90;99.90
64951;DHT22;51482;47.014;7.652;2023-08-20T05:02:03;20.00;99.90
64951;DHT22;51482;47.014;7.652;2023-08-20T05:04:29;20.00;99.90
64951;DHT22;51482;47.014;7.652;2023-08-20T05:06:54;20.20;99.90
64951;DHT22;51482;47.014;7.652;2023-08-20T05:09:21;20.20;99.90
64951;DHT22;51482;47.014;7.652;2023-08-20T05:11:46;20.20;99.90
64951;DHT22;51482;47.014;7.652;2023-08-20T05:14:12;20.10;99.90
64951;DHT22;51482;47.014;7.652;2023-08-20T05:16:38;20.00;99.90
64951;DHT22;51482;47.014;7.652;2023-08-20T05:19:03;20.10;99.90
64951;DHT22;51482;47.014;7.652;2023-08-20T05:21:29;20.00;99.90
64951;DHT22;51482;47.014;7.652;2023-08-20T05:23:54;20.00;99.90
64951;DHT22;51482;47.014;7.652;2023-08-20T05:26:22;19.90;99.90
64951;DHT22;51482;47.014;7.652;2023-08-20T05:28:47;19.80;99.90
64951;DHT22;51482;47.014;7.652;2023-08-20T05:31:13;19.70;99.90
64951;DHT22;51482;47.014;7.652;2023-08-20T05:33:38;19.70;99.90
64951;DHT22;51482;47.014;7.652;2023-08-20T05:36:04;19.80;99.90
64951;DHT22;51482;47.014;7.652;2023-08-20T05:38:29;19.90;99.90
64951;DHT22;51482;47.014;7.652;2023-08-20T05:40:55;20.00;99.90
64951;DHT22;51482;47.014;7.652;2023-08-20T05:43:20;20.10;99.90
64951;DHT22;51482;47.014;7.652;2023-08-20T05:45:46;20.20;99.90
64951;DHT22;51482;47.014;7.652;2023-08-20T05:48:12;20.20;99.90
64951;DHT22;51482;47.014;7.652;2023-08-20T05:50:37;20.20;99.90
64951;DHT22;51482;47.014;7.652;2023-08-20T05:53:03;20.50;99.90
64951;DHT22;51482;47.014;7.652;2023-08-20T05:55:29;20.30;99.90
64951;DHT22;51482;47.014;7.652;2023-08-20T05:57:54;20.30;99.90
64951;DHT22;51482;47.014;7.652;2023-08-20T06:00:20;20.40;99.90
64951;DHT22;51482;47.014;7.652;2023-08-20T06:02:45;20.40;99.90
64951;DHT22;51482;47.014;7.652;2023-08-20T06:05:11;20.30;99.90
64951;DHT22;51482;47.014;7.652;2023-08-20T06:07:37;20.30;99.90
64951;DHT22;51482;47.014;7.652;2023-08-20T06:10:02;20.20;99.90
64951;DHT22;51482;47.014;7.652;2023-08-20T06:12:28;20.20;99.90
64951;DHT22;51482;47.014;7.652;2023-08-20T06:14:53;20.30;99.90
64951;DHT22;51482;47.014;7.652;2023-08-20T06:17:19;20.40;99.90
64951;DHT22;51482;47.014;7.652;2023-08-20T06:19:44;20.50;99.90
64951;DHT22;51482;47.014;7.652;2023-08-20T06:22:10;20.40;99.90
64951;DHT22;51482;47.014;7.652;2023-08-20T06:24:36;20.30;99.90
64951;DHT22;51482;47.014;7.652;2023-08-20T06:27:01;20.40;99.90
64951;DHT22;51482;47.014;7.652;2023-08-20T06:29:27;20.60;99.90
64951;DHT22;51482;47.014;7.652;2023-08-20T06:31:52;20.70;99.90
64951;DHT22;51482;47.014;7.652;2023-08-20T06:34:18;20.90;99.90
64951;DHT22;51482;47.014;7.652;2023-08-20T06:36:44;20.90;99.90
64951;DHT22;51482;47.014;7.652;2023-08-20T06:39:09;21.10;99.90
64951;DHT22;51482;47.014;7.652;2023-08-20T06:41:35;21.10;99.90
64951;DHT22;51482;47.014;7.652;2023-08-20T06:44:02;21.20;99.90
64951;DHT22;51482;47.014;7.652;2023-08-20T06:46:27;21.20;99.90
64951;DHT22;51482;47.014;7.652;2023-08-20T06:48:53;21.30;99.90
64951;DHT22;51482;47.014;7.652;2023-08-20T06:51:20;21.50;99.90
64951;DHT22;51482;47.014;7.652;2023-08-20T06:53:46;21.50;99.90
64951;DHT22;51482;47.014;7.652;2023-08-20T06:56:12;21.80;99.90
64951;DHT22;51482;47.014;7.652;2023-08-20T06:58:40;21.50;99.90
64951;DHT22;51482;47.014;7.652;2023-08-20T07:01:06;21.50;99.90
64951;DHT22;51482;47.014;7.652;2023-08-20T07:03:41;21.60;99.90
64951;DHT22;51482;47.014;7.652;2023-08-20T07:06:08;21.70;99.90
64951;DHT22;51482;47.014;7.652;2023-08-20T07:08:39;21.90;99.90
64951;DHT22;51482;47.014;7.652;2023-08-20T07:11:06;22.00;99.90
64951;DHT22;51482;47.014;7.652;2023-08-20T07:13:32;22.20;99.90
64951;DHT22;51482;47.014;7.652;2023-08-20T07:15:57;22.30;99.90
64951;DHT22;51482;47.014;7.652;2023-08-20T07:18:23;22.60;99.90
64951;DHT22;51482;47.014;7.652;2023-08-20T07:20:50;22.70;99.90
64951;DHT22;51482;47.014;7.652;2023-08-20T07:23:16;22.80;99.90
64951;DHT22;51482;47.014;7.652;2023-08-20T07:25:42;23.10;99.90
64951;DHT22;51482;47.014;7.652;2023-08-20T07:28:08;23.20;99.90
64951;DHT22;51482;47.014;7.652;2023-08-20T07:30:34;23.30;99.90
64951;DHT22;51482;47.014;7.652;2023-08-20T07:33:00;23.50;99.90
64951;DHT22;51482;47.014;7.652;2023-08-20T07:35:26;23.90;99.90
64951;DHT22;51482;47.014;7.652;2023-08-20T07:37:52;23.80;99.90
64951;DHT22;51482;47.014;7.652;2023-08-20T07:40:17;23.90;99.90
64951;DHT22;51482;47.014;7.652;2023-08-20T07:42:43;24.00;99.90
64951;DHT22;51482;47.014;7.652;2023-08-20T07:45:09;24.20;99.90
64951;DHT22;51482;47.014;7.652;2023-08-20T07:47:38;24.50;99.90
64951;DHT22;51482;47.014;7.652;2023-08-20T07:50:04;24.70;99.90
64951;DHT22;51482;47.014;7.652;2023-08-20T07:52:31;25.00;99.90
64951;DHT22;51482;47.014;7.652;2023-08-20T07:54:57;25.20;99.90
64951;DHT22;51482;47.014;7.652;2023-08-20T07:57:23;25.60;99.90
64951;DHT22;51482;47.014;7.652;2023-08-20T07:59:51;25.80;99.90
64951;DHT22;51482;47.014;7.652;2023-08-20T08:02:17;26.10;99.90
64951;DHT22;51482;47.014;7.652;2023-08-20T08:04:44;26.40;99.90
64951;DHT22;51482;47.014;7.652;2023-08-20T08:07:12;26.60;99.90
64951;DHT22;51482;47.014;7.652;2023-08-20T08:09:38;26.90;99.90
64951;DHT22;51482;47.014;7.652;2023-08-20T08:12:04;26.90;99.90
64951;DHT22;51482;47.014;7.652;2023-08-20T08:14:30;27.20;99.90
64951;DHT22;51482;47.014;7.652;2023-08-20T08:16:56;27.20;99.90
64951;DHT22;51482;47.014;7.652;2023-08-20T08:19:21;27.30;99.90
64951;DHT22;51482;47.014;7.652;2023-08-20T08:21:47;27.60;99.90
64951;DHT22;51482;47.014;7.652;2023-08-20T08:24:13;27.90;99.90
64951;DHT22;51482;47.014;7.652;2023-08-20T08:26:39;28.20;99.90
64951;DHT22;51482;47.014;7.652;2023-08-20T08:29:06;28.50;99.90
64951;DHT22;51482;47.014;7.652;2023-08-20T08:31:33;28.60;99.90
64951;DHT22;51482;47.014;7.652;2023-08-20T08:33:59;28.80;99.90
64951;DHT22;51482;47.014;7.652;2023-08-20T08:36:24;29.00;99.90
64951;DHT22;51482;47.014;7.652;2023-08-20T08:38:51;29.20;99.90
64951;DHT22;51482;47.014;7.652;2023-08-20T08:41:17;29.40;99.90
64951;DHT22;51482;47.014;7.652;2023-08-20T08:43:43;29.70;99.90
64951;DHT22;51482;47.014;7.652;2023-08-20T08:46:13;29.80;99.90
64951;DHT22;51482;47.014;7.652;2023-08-20T08:48:43;30.00;99.90
64951;DHT22;51482;47.014;7.652;2023-08-20T08:51:09;30.30;99.90
64951;DHT22;51482;47.014;7.652;2023-08-20T08:53:35;30.70;99.90
64951;DHT22;51482;47.014;7.652;2023-08-20T08:56:01;30.40;99.90
64951;DHT22;51482;47.014;7.652;2023-08-20T08:58:28;30.80;99.90
64951;DHT22;51482;47.014;7.652;2023-08-20T09:00:54;30.90;99.90
64951;DHT22;51482;47.014;7.652;2023-08-20T09:03:19;31.10;99.90
64951;DHT22;51482;47.014;7.652;2023-08-20T09:05:46;31.30;99.90
64951;DHT22;51482;47.014;7.652;2023-08-20T09:08:22;31.40;99.80
64951;DHT22;51482;47.014;7.652;2023-08-20T09:10:51;31.50;98.40
64951;DHT22;51482;47.014;7.652;2023-08-20T09:13:17;31.70;98.30
64951;DHT22;51482;47.014;7.652;2023-08-20T09:15:42;32.10;98.60
64951;DHT22;51482;47.014;7.652;2023-08-20T09:18:11;32.70;98.50
64951;DHT22;51482;47.014;7.652;2023-08-20T09:20:37;32.40;95.50
64951;DHT22;51482;47.014;7.652;2023-08-20T09:23:03;32.60;96.80
64951;DHT22;51482;47.014;7.652;2023-08-20T09:25:29;32.80;96.70
64951;DHT22;51482;47.014;7.652;2023-08-20T09:27:54;32.90;94.10
64951;DHT22;51482;47.014;7.652;2023-08-20T09:30:20;33.20;93.80
64951;DHT22;51482;47.014;7.652;2023-08-20T09:33:06;33.20;92.00
64951;DHT22;51482;47.014;7.652;2023-08-20T09:35:32;33.30;91.40
64951;DHT22;51482;47.014;7.652;2023-08-20T09:38:04;33.60;91.20
64951;DHT22;51482;47.014;7.652;2023-08-20T09:40:30;33.60;90.50
64951;DHT22;51482;47.014;7.652;2023-08-20T09:42:56;33.50;90.00
64951;DHT22;51482;47.014;7.652;2023-08-20T09:45:24;33.70;89.30
64951;DHT22;51482;47.014;7.652;2023-08-20T09:47:54;33.90;89.40
64951;DHT22;51482;47.014;7.652;2023-08-20T09:50:22;33.90;84.80
64951;DHT22;51482;47.014;7.652;2023-08-20T09:53:00;34.10;88.40
64951;DHT22;51482;47.014;7.652;2023-08-20T09:55:32;34.40;88.00
64951;DHT22;51482;47.014;7.652;2023-08-20T09:58:01;34.70;86.70
64951;DHT22;51482;47.014;7.652;2023-08-20T10:00:28;34.80;81.10
64951;DHT22;51482;47.014;7.652;2023-08-20T10:02:54;34.70;81.10
64951;DHT22;51482;47.014;7.652;2023-08-20T10:05:20;35.20;82.50
64951;DHT22;51482;47.014;7.652;2023-08-20T10:07:49;35.20;78.70
64951;DHT22;51482;47.014;7.652;2023-08-20T10:10:14;35.30;78.30
64951;DHT22;51482;47.014;7.652;2023-08-20T10:12:42;35.30;77.80
64951;DHT22;51482;47.014;7.652;2023-08-20T10:15:09;35.50;76.80
64951;DHT22;51482;47.014;7.652;2023-08-20T10:17:37;35.70;75.30
64951;DHT22;51482;47.014;7.652;2023-08-20T10:20:04;35.70;77.00
64951;DHT22;51482;47.014;7.652;2023-08-20T10:22:39;36.00;74.50
64951;DHT22;51482;47.014;7.652;2023-08-20T10:25:24;36.20;73.60
64951;DHT22;51482;47.014;7.652;2023-08-20T10:27:50;36.40;71.60
64951;DHT22;51482;47.014;7.652;2023-08-20T10:30:23;36.20;69.50
64951;DHT22;51482;47.014;7.652;2023-08-20T10:32:52;36.60;71.70
64951;DHT22;51482;47.014;7.652;2023-08-20T10:35:23;36.30;68.30
64951;DHT22;51482;47.014;7.652;2023-08-20T10:38:20;36.60;67.80
64951;DHT22;51482;47.014;7.652;2023-08-20T10:40:55;36.70;65.70
64951;DHT22;51482;47.014;7.652;2023-08-20T10:43:49;36.90;67.50
64951;DHT22;51482;47.014;7.652;2023-08-20T10:46:22;37.00;65.80
64951;DHT22;51482;47.014;7.652;2023-08-20T10:48:58;36.90;62.10
64951;DHT22;51482;47.014;7.652;2023-08-20T10:51:34;37.20;64.40
64951;DHT22;51482;47.014;7.652;2023-08-20T10:56:54;37.60;64.00
64951;DHT22;51482;47.014;7.652;2023-08-20T10:59:21;37.80;61.70
64951;DHT22;51482;47.014;7.652;2023-08-20T11:01:48;38.00;61.90
64951;DHT22;51482;47.014;7.652;2023-08-20T11:04:19;38.10;59.00
64951;DHT22;51482;47.014;7.652;2023-08-20T11:06:46;38.30;58.10
64951;DHT22;51482;47.014;7.652;2023-08-20T11:09:12;38.00;58.70
64951;DHT22;51482;47.014;7.652;2023-08-20T11:11:39;38.40;56.40
64951;DHT22;51482;47.014;7.652;2023-08-20T11:14:14;38.80;55.30
64951;DHT22;51482;47.014;7.652;2023-08-20T11:16:41;38.50;54.20
64951;DHT22;51482;47.014;7.652;2023-08-20T11:19:07;38.50;56.50
64951;DHT22;51482;47.014;7.652;2023-08-20T11:21:40;38.50;55.90
64951;DHT22;51482;47.014;7.652;2023-08-20T11:24:06;38.70;55.70
64951;DHT22;51482;47.014;7.652;2023-08-20T11:26:33;38.50;54.70
64951;DHT22;51482;47.014;7.652;2023-08-20T11:29:00;38.70;55.40
64951;DHT22;51482;47.014;7.652;2023-08-20T11:31:26;38.80;54.80
64951;DHT22;51482;47.014;7.652;2023-08-20T11:33:51;38.80;54.30
64951;DHT22;51482;47.014;7.652;2023-08-20T11:36:19;39.10;54.50
64951;DHT22;51482;47.014;7.652;2023-08-20T11:38:52;38.90;53.00
64951;DHT22;51482;47.014;7.652;2023-08-20T11:41:21;39.00;51.80
64951;DHT22;51482;47.014;7.652;2023-08-20T11:43:47;38.90;49.20
64951;DHT22;51482;47.014;7.652;2023-08-20T11:46:14;39.20;49.60
64951;DHT22;51482;47.014;7.652;2023-08-20T11:48:59;39.50;50.20
64951;DHT22;51482;47.014;7.652;2023-08-20T11:51:26;39.70;48.90
64951;DHT22;51482;47.014;7.652;2023-08-20T11:53:52;39.70;48.60
64951;DHT22;51482;47.014;7.652;2023-08-20T11:56:18;39.70;47.30
64951;DHT22;51482;47.014;7.652;2023-08-20T11:58:43;39.30;46.60
64951;DHT22;51482;47.014;7.652;2023-08-20T12:01:09;39.60;46.50
64951;DHT22;51482;47.014;7.652;2023-08-20T12:03:37;39.80;45.90
64951;DHT22;51482;47.014;7.652;2023-08-20T12:06:19;39.90;46.00
64951;DHT22;51482;47.014;7.652;2023-08-20T12:08:45;40.00;45.90
64951;DHT22;51482;47.014;7.652;2023-08-20T12:11:10;40.10;45.40
64951;DHT22;51482;47.014;7.652;2023-08-20T12:13:36;40.30;45.30
64951;DHT22;51482;47.014;7.652;2023-08-20T12:16:02;40.40;46.00
64951;DHT22;51482;47.014;7.652;2023-08-20T12:18:27;40.40;44.80
64951;DHT22;51482;47.014;7.652;2023-08-20T12:20:53;40.30;46.70
64951;DHT22;51482;47.014;7.652;2023-08-20T12:23:18;40.20;45.00
64951;DHT22;51482;47.014;7.652;2023-08-20T12:25:50;40.40;41.90
64951;DHT22;51482;47.014;7.652;2023-08-20T12:28:16;40.40;43.50
64951;DHT22;51482;47.014;7.652;2023-08-20T12:30:42;40.20;42.50
64951;DHT22;51482;47.014;7.652;2023-08-20T12:33:07;40.40;43.00
64951;DHT22;51482;47.014;7.652;2023-08-20T12:35:33;40.40;44.50
64951;DHT22;51482;47.014;7.652;2023-08-20T12:37:58;40.50;43.40
64951;DHT22;51482;47.014;7.652;2023-08-20T12:40:25;40.90;44.30
64951;DHT22;51482;47.014;7.652;2023-08-20T12:42:51;40.80;44.80
64951;DHT22;51482;47.014;7.652;2023-08-20T12:45:18;40.40;43.50
64951;DHT22;51482;47.014;7.652;2023-08-20T12:47:43;40.80;42.20
64951;DHT22;51482;47.014;7.652;2023-08-20T12:50:09;40.60;44.40
64951;DHT22;51482;47.014;7.652;2023-08-20T12:52:36;40.70;43.30
64951;DHT22;51482;47.014;7.652;2023-08-20T12:55:02;40.80;43.10
64951;DHT22;51482;47.014;7.652;2023-08-20T12:57:30;40.80;42.00
64951;DHT22;51482;47.014;7.652;2023-08-20T12:59:56;40.80;41.50
64951;DHT22;51482;47.014;7.652;2023-08-20T13:02:21;40.80;42.70
64951;DHT22;51482;47.014;7.652;2023-08-20T13:04:47;40.70;41.20
64951;DHT22;51482;47.014;7.652;2023-08-20T13:07:13;40.80;42.90
64951;DHT22;51482;47.014;7.652;2023-08-20T13:09:39;40.80;41.80
64951;DHT22;51482;47.014;7.652;2023-08-20T13:12:05;40.70;40.50
64951;DHT22;51482;47.014;7.652;2023-08-20T13:14:34;40.60;40.30
64951;DHT22;51482;47.014;7.652;2023-08-20T13:17:00;40.60;40.90
64951;DHT22;51482;47.014;7.652;2023-08-20T13:19:26;40.60;41.90
64951;DHT22;51482;47.014;7.652;2023-08-20T13:21:51;40.60;39.40
64951;DHT22;51482;47.014;7.652;2023-08-20T13:24:17;40.60;40.80
64951;DHT22;51482;47.014;7.652;2023-08-20T13:26:42;40.60;40.80
64951;DHT22;51482;47.014;7.652;2023-08-20T13:29:08;40.50;40.60
64951;DHT22;51482;47.014;7.652;2023-08-20T13:31:33;40.80;40.90
64951;DHT22;51482;47.014;7.652;2023-08-20T13:34:01;40.40;41.10
64951;DHT22;51482;47.014;7.652;2023-08-20T13:36:26;40.40;42.20
64951;DHT22;51482;47.014;7.652;2023-08-20T13:38:52;40.60;42.20
64951;DHT22;51482;47.014;7.652;2023-08-20T13:41:17;40.70;40.10
64951;DHT22;51482;47.014;7.652;2023-08-20T13:43:43;40.60;42.30
64951;DHT22;51482;47.014;7.652;2023-08-20T13:46:08;40.70;41.40
64951;DHT22;51482;47.014;7.652;2023-08-20T13:48:34;40.80;41.00
64951;DHT22;51482;47.014;7.652;2023-08-20T13:51:00;40.80;40.60
64951;DHT22;51482;47.014;7.652;2023-08-20T13:53:25;40.80;42.00
64951;DHT22;51482;47.014;7.652;2023-08-20T13:55:51;40.90;42.60
64951;DHT22;51482;47.014;7.652;2023-08-20T13:58:17;40.80;40.70
64951;DHT22;51482;47.014;7.652;2023-08-20T14:00:43;40.80;39.30
64951;DHT22;51482;47.014;7.652;2023-08-20T14:03:08;40.90;42.30
64951;DHT22;51482;47.014;7.652;2023-08-20T14:05:34;40.80;39.90
64951;DHT22;51482;47.014;7.652;2023-08-20T14:07:59;40.70;39.70
64951;DHT22;51482;47.014;7.652;2023-08-20T14:10:25;40.90;39.40
64951;DHT22;51482;47.014;7.652;2023-08-20T14:12:50;41.20;39.30
64951;DHT22;51482;47.014;7.652;2023-08-20T14:15:16;41.00;40.10
64951;DHT22;51482;47.014;7.652;2023-08-20T14:17:41;40.80;39.30
64951;DHT22;51482;47.014;7.652;2023-08-20T14:20:07;40.80;39.70
64951;DHT22;51482;47.014;7.652;2023-08-20T14:22:33;40.60;40.00
64951;DHT22;51482;47.014;7.652;2023-08-20T14:24:59;40.30;39.00
64951;DHT22;51482;47.014;7.652;2023-08-20T14:27:24;40.00;39.10
64951;DHT22;51482;47.014;7.652;2023-08-20T14:29:50;39.70;40.10
64951;DHT22;51482;47.014;7.652;2023-08-20T14:32:15;39.40;40.20
64951;DHT22;51482;47.014;7.652;2023-08-20T14:34:41;39.10;42.00
64951;DHT22;51482;47.014;7.652;2023-08-20T14:37:06;39.20;40.20
64951;DHT22;51482;47.014;7.652;2023-08-20T14:39:33;39.40;41.40
64951;DHT22;51482;47.014;7.652;2023-08-20T14:41:59;39.20;40.80
64951;DHT22;51482;47.014;7.652;2023-08-20T14:44:24;39.40;42.90
64951;DHT22;51482;47.014;7.652;2023-08-20T14:46:50;39.10;40.50
64951;DHT22;51482;47.014;7.652;2023-08-20T14:49:16;38.90;39.30
64951;DHT22;51482;47.014;7.652;2023-08-20T14:51:43;38.60;42.70
64951;DHT22;51482;47.014;7.652;2023-08-20T14:54:09;38.10;42.10
64951;DHT22;51482;47.014;7.652;2023-08-20T14:56:35;38.00;43.00
64951;DHT22;51482;47.014;7.652;2023-08-20T14:59:00;37.70;43.90
64951;DHT22;51482;47.014;7.652;2023-08-20T15:01:26;37.60;44.30
64951;DHT22;51482;47.014;7.652;2023-08-20T15:03:51;37.30;44.40
64951;DHT22;51482;47.014;7.652;2023-08-20T15:06:17;37.10;43.70
64951;DHT22;51482;47.014;7.652;2023-08-20T15:08:46;36.80;44.00
64951;DHT22;51482;47.014;7.652;2023-08-20T15:11:12;36.70;45.00
64951;DHT22;51482;47.014;7.652;2023-08-20T15:13:37;36.70;46.10
64951;DHT22;51482;47.014;7.652;2023-08-20T15:16:03;36.90;47.10
64951;DHT22;51482;47.014;7.652;2023-08-20T15:18:29;36.60;47.70
64951;DHT22;51482;47.014;7.652;2023-08-20T15:20:56;36.50;47.20
64951;DHT22;51482;47.014;7.652;2023-08-20T15:23:25;36.40;47.70
64951;DHT22;51482;47.014;7.652;2023-08-20T15:25:51;36.30;48.10
64951;DHT22;51482;47.014;7.652;2023-08-20T15:28:19;36.30;48.00
64951;DHT22;51482;47.014;7.652;2023-08-20T15:30:44;36.20;48.90
64951;DHT22;51482;47.014;7.652;2023-08-20T15:33:10;36.10;48.20
64951;DHT22;51482;47.014;7.652;2023-08-20T15:35:35;36.10;48.80
64951;DHT22;51482;47.014;7.652;2023-08-20T15:38:01;36.20;49.20